Latest News: CDIP is now hiring. Job description.

OREGON INLET, NC - 192

GPS Positions

GPS Time
Latitude
Degrees
Longitude
Degrees
Gap
 
Distance
NM
Speed
Knots
Direction
Degrees
May 20, 06:21 35.75000° -75.32988° 30 min 0.02 0.00
112°
May 20, 05:51 35.75000° -75.32990° 30 min 0.02 0.00
May 20, 05:21 35.75000° -75.32990° 30 min 0.02 0.00
250°
May 20, 04:51 35.75002° -75.32986° 30 min 0.02 0.00
47°
May 20, 04:21 35.75000° -75.32988° 30 min 0.02 0.00
250°
May 20, 03:51 35.75002° -75.32984° 30 min 0.02 0.00
70°
May 20, 03:21 35.75000° -75.32988° 30 min 0.02 0.00
270°
May 20, 02:51 35.75000° -75.32986° 30 min 0.02 0.00
90°
May 20, 02:21 35.75000° -75.32988° 30 min 0.02 0.00
227°
May 20, 01:51 35.75002° -75.32986° 30 min 0.02 0.00
May 20, 01:21 35.75000° -75.32986° 30 min 0.02 0.00
224°
May 20, 00:51 35.75002° -75.32984° 30 min 0.02 0.00
122°
May 20, 00:21 35.75003° -75.32986° 30 min 0.02 0.00
28°
May 19, 23:51 35.75000° -75.32988° 30 min 0.02 0.00
May 19, 23:21 35.75000° -75.32988° 30 min 0.02 0.00
180°
May 19, 22:51 35.75002° -75.32988° 30 min 0.02 0.00
122°
May 19, 22:21 35.75003° -75.32990° 30 min 0.02 0.00
31°
May 19, 21:51 35.75000° -75.32993° 30 min 0.02 0.00
270°
May 19, 21:21 35.75000° -75.32990° 30 min 0.02 0.00
102°
May 19, 20:51 35.75000° -75.32995° 30 min 0.02 0.01
270°
May 19, 20:21 35.75000° -75.32988° 30 min 0.02 0.01
133°
May 19, 19:51 35.75004° -75.32993° 30 min 0.02 0.00
May 19, 19:21 35.75004° -75.32993° 30 min 0.02 0.00
May 19, 18:51 35.75003° -75.32993° 30 min 0.02 0.00
270°
May 19, 18:21 35.75003° -75.32990° 30 min 0.02 0.00
May 19, 17:51 35.75002° -75.32990° 30 min 0.02 0.00
May 19, 17:21 35.75002° -75.32990° 30 min 0.02 0.00
270°
May 19, 16:51 35.75002° -75.32988° 30 min 0.02 0.00
313°
May 19, 16:21 35.75000° -75.32986° 30 min 0.02 0.00
292°
May 19, 15:51 35.75000° -75.32984° 30 min 0.02 0.00
180°
May 19, 15:21 35.75002° -75.32984° 30 min 0.02 0.00
219°
May 19, 14:51 35.75004° -75.32982° 30 min 0.02 0.00
May 19, 14:21 35.75004° -75.32982° 30 min 0.02 0.00
May 19, 13:51 35.75003° -75.32982° 30 min 0.02 0.00
58°
May 19, 13:21 35.75002° -75.32984° 30 min 0.02 0.01
238°
May 19, 12:51 35.75005° -75.32977° 30 min 0.02 0.00
73°
May 19, 12:21 35.75004° -75.32982° 30 min 0.02 0.00
May 19, 11:51 35.75002° -75.32982° 30 min 0.02 0.00
180°
May 19, 11:21 35.75003° -75.32982° 30 min 0.02 0.00
May 19, 10:51 35.75003° -75.32982° 30 min 0.02 0.00
122°
May 19, 10:21 35.75004° -75.32984° 30 min 0.02 0.00
58°
May 19, 09:51 35.75003° -75.32986° 30 min 0.02 0.00
28°
May 19, 09:21 35.75000° -75.32988° 30 min 0.02 0.00
208°
May 19, 08:51 35.75003° -75.32986° 30 min 0.02 0.00
90°
May 19, 08:21 35.75003° -75.32988° 30 min 0.02 0.01
58°
May 19, 07:51 35.75000° -75.32993° 30 min 0.02 0.00
152°
May 19, 07:21 35.75004° -75.32995° 30 min 0.02 0.00
302°
May 19, 06:51 35.75003° -75.32993° 30 min 0.02 0.00
May 19, 06:21 35.75002° -75.32993° 30 min 0.02 0.00
122°
May 19, 05:51 35.75003° -75.32995° 30 min 0.02 0.00
287°
May 19, 05:21 35.75002° -75.32990° 30 min 0.02 0.00
73°
May 19, 04:51 35.75000° -75.32995° 30 min 0.02 0.00
270°
May 19, 04:21 35.75000° -75.32990° 30 min 0.02 0.00
May 19, 03:51 35.75000° -75.32990° 30 min 0.02 0.00
May 19, 03:21 35.75000° -75.32990° 30 min 0.02 0.00
248°
May 19, 02:51 35.75000° -75.32988° 30 min 0.02 0.00
May 19, 02:21 35.75000° -75.32988° 30 min 0.02 0.00
238°
May 19, 01:51 35.75000° -75.32986° 30 min 0.02 0.00
270°
May 19, 01:21 35.75000° -75.32984° 30 min 0.02 0.00
180°
May 19, 00:51 35.75003° -75.32984° 30 min 0.02 0.00
238°
May 19, 00:21 35.75004° -75.32982° 30 min 0.02 0.00
270°
May 18, 23:51 35.75004° -75.32980° 30 min 0.02 0.00
39°
May 18, 23:21 35.75002° -75.32982° 30 min 0.02 0.00
107°
May 18, 22:51 35.75003° -75.32986° 30 min 0.02 0.00
219°
May 18, 22:21 35.75005° -75.32984° 30 min 0.02 0.00
May 18, 21:51 35.75003° -75.32984° 30 min 0.02 0.00
58°
May 18, 21:21 35.75002° -75.32986° 30 min 0.02 0.01
103°
May 18, 20:51 35.75003° -75.32993° 30 min 0.02 0.00
180°
May 18, 20:21 35.75005° -75.32993° 30 min 0.02 0.00
180°
May 18, 19:51 35.75007° -75.32993° 30 min 0.02 0.01
90°
May 18, 19:21 35.75007° -75.32999° 30 min 0.02 0.01
90°
May 18, 18:51 35.75007° -75.33006° 30 min 0.02 0.00
122°
May 18, 18:21 35.75008° -75.33008° 30 min 0.02 0.00
302°
May 18, 17:51 35.75007° -75.33006° 30 min 0.02 0.00
270°
May 18, 17:21 35.75007° -75.33003° 30 min 0.02 0.00
287°
May 18, 16:51 35.75006° -75.32999° 30 min 0.02 0.00
44°
May 18, 16:21 35.75004° -75.33001° 30 min 0.02 0.01
238°
May 18, 15:51 35.75007° -75.32995° 30 min 0.02 0.00
270°
May 18, 15:21 35.75007° -75.32993° 30 min 0.02 0.00
270°
May 18, 14:51 35.75007° -75.32990° 30 min 0.02 0.00
270°
May 18, 14:21 35.75007° -75.32986° 30 min 0.02 0.00
302°
May 18, 13:51 35.75006° -75.32984° 30 min 0.02 0.00
180°
May 18, 13:21 35.75007° -75.32984° 30 min 0.02 0.00
May 18, 12:51 35.75007° -75.32984° 30 min 0.02 0.00
70°
May 18, 12:21 35.75006° -75.32988° 30 min 0.02 0.00
270°
May 18, 11:51 35.75006° -75.32986° 30 min 0.02 0.00
180°
May 18, 11:21 35.75007° -75.32986° 30 min 0.02 0.00
May 18, 10:51 35.75007° -75.32986° 30 min 0.02 0.00
33°
May 18, 10:21 35.75005° -75.32988° 30 min 0.02 0.00
180°
May 18, 09:51 35.75006° -75.32988° 30 min 0.02 0.00
May 18, 09:21 35.75004° -75.32988° 30 min 0.02 0.00
90°
May 18, 08:51 35.75004° -75.32990° 30 min 0.02 0.00
May 18, 08:21 35.75004° -75.32990° 30 min 0.02 0.00
90°
May 18, 07:51 35.75004° -75.32993° 30 min 0.02 0.00
180°
May 18, 07:21 35.75005° -75.32993° 30 min 0.02 0.00
73°
May 18, 06:51 35.75004° -75.32997° 30 min 0.02 0.00
70°
May 18, 06:21 35.75003° -75.33001° 30 min 0.02 0.00
58°
May 18, 05:51 35.75002° -75.33003° 30 min 0.02 0.00
270°
May 18, 05:21 35.75002° -75.33001° 30 min 0.02 0.00
180°
May 18, 04:51 35.75003° -75.33001° 30 min 0.02 0.01
270°
May 18, 04:21 35.75003° -75.32993° 30 min 0.02 0.00
May 18, 03:51 35.75003° -75.32993° 30 min 0.02 0.00
270°
May 18, 03:21 35.75003° -75.32990° 30 min 0.02 0.00
May 18, 02:51 35.75003° -75.32990° 30 min 0.02 0.00
90°
May 18, 02:21 35.75003° -75.32993° 30 min 0.02 0.00
270°
May 18, 01:51 35.75003° -75.32988° 30 min 0.02 0.00
332°
May 18, 01:21 35.75000° -75.32986° 30 min 0.02 0.00
180°
May 18, 00:51 35.75003° -75.32986° 30 min 0.02 0.00
47°
May 18, 00:21 35.75002° -75.32988° 30 min 0.02 0.00
May 17, 23:51 35.75002° -75.32988° 30 min 0.02 0.01
71°
May 17, 23:21 35.75000° -75.32995° 30 min 0.02 0.00
180°
May 17, 22:51 35.75002° -75.32995° 30 min 0.02 0.00
May 17, 22:21 35.75002° -75.32995° 30 min 0.02 0.00
31°
May 17, 21:51 35.74998° -75.32997° 30 min 0.02 0.00
May 17, 21:21 35.74997° -75.32997° 30 min 0.02 0.00
90°
May 17, 20:51 35.74997° -75.32999° 30 min 0.02 0.00
227°
May 17, 20:21 35.74998° -75.32997° 30 min 0.02 0.00
May 17, 19:51 35.74998° -75.32997° 30 min 0.02 0.00
180°
May 17, 19:21 35.75000° -75.32997° 30 min 0.02 0.00
May 17, 18:51 35.74998° -75.32997° 30 min 0.02 0.00
133°
May 17, 18:21 35.75000° -75.32999° 30 min 0.02 0.00
May 17, 17:51 35.75000° -75.32999° 30 min 0.02 0.00
313°
May 17, 17:21 35.74998° -75.32997° 30 min 0.02 0.00
270°
May 17, 16:51 35.74998° -75.32995° 30 min 0.02 0.00
May 17, 16:21 35.74997° -75.32995° 30 min 0.02 0.00
180°
May 17, 15:51 35.75000° -75.32995° 30 min 0.02 0.00
May 17, 15:21 35.74998° -75.32995° 30 min 0.02 0.00
May 17, 14:51 35.74997° -75.32995° 30 min 0.02 0.00
May 17, 14:21 35.74996° -75.32995° 30 min 0.02 0.00
May 17, 13:51 35.74995° -75.32995° 30 min 0.02 0.00
316°
May 17, 13:21 35.74993° -75.32993° 30 min 0.03 0.00
149°
May 17, 12:51 35.74996° -75.32995° 30 min 0.02 0.00
253°
May 17, 12:21 35.74997° -75.32990° 30 min 0.02 0.00
39°
May 17, 11:51 35.74995° -75.32993° 30 min 0.02 0.00
253°
May 17, 11:21 35.74996° -75.32988° 30 min 0.02 0.00
122°
May 17, 10:51 35.74997° -75.32990° 30 min 0.02 0.00
180°
May 17, 10:21 35.74998° -75.32990° 30 min 0.02 0.00
290°
May 17, 09:51 35.74997° -75.32986° 30 min 0.02 0.00
May 17, 09:21 35.74997° -75.32986° 30 min 0.02 0.01
238°
May 17, 08:51 35.75000° -75.32982° 30 min 0.02 0.00
May 17, 08:21 35.74998° -75.32982° 30 min 0.02 0.00
180°
May 17, 07:51 35.75000° -75.32982° 30 min 0.02 0.00
122°